EZY2892 EDDH-EGGW
Flight info
| Callsign | EZY2892 |
|---|---|
| Flight time | N/A |
| Altitude | 32000 |
| Route | WSN5G/33 WSN N125 EKNON DCT NOGRO M40 RINIS |
| Aircraft | A320/M-SDE3FGHIRWY/LB1 |
Departure
| Time | 2026-05-07 09:14 |
|---|---|
| Airport | Hamburg Helmut Schmidt Airport (EDDH) |
Arrival
| Time | N/A |
|---|---|
| Airport | London Luton Airport (EGGW) |
| Time | Latitude | Longitude | Altitude | Speed | Heading |
|---|---|---|---|---|---|
| 2026-05-07 08:56 | 53.62972 | 10.00269 | 46 ft | 0 kts | 120° |
| 2026-05-07 09:05 | 53.62975 | 10.00259 | 46 ft | 2 kts | 120° |
| 2026-05-07 09:05 | 53.62984 | 10.00235 | 42 ft | 2 kts | 129° |
| 2026-05-07 09:05 | 53.62996 | 10.00216 | 45 ft | 2 kts | 161° |
| 2026-05-07 09:06 | 53.63013 | 10.00209 | 44 ft | 2 kts | 194° |
| 2026-05-07 09:06 | 53.63020 | 10.00211 | 44 ft | 0 kts | 211° |
| 2026-05-07 09:07 | 53.63019 | 10.00211 | 44 ft | 0 kts | 211° |
| 2026-05-07 09:08 | 53.63018 | 10.00210 | 44 ft | 1 kts | 211° |
| 2026-05-07 09:09 | 53.63007 | 10.00198 | 44 ft | 4 kts | 214° |
| 2026-05-07 09:09 | 53.62978 | 10.00165 | 45 ft | 5 kts | 214° |
| 2026-05-07 09:09 | 53.62945 | 10.00128 | 46 ft | 6 kts | 213° |
| 2026-05-07 09:09 | 53.62910 | 10.00091 | 43 ft | 6 kts | 212° |
| 2026-05-07 09:10 | 53.62893 | 10.00072 | 46 ft | 0 kts | 214° |
| 2026-05-07 09:10 | 53.62887 | 10.00065 | 46 ft | 2 kts | 213° |
| 2026-05-07 09:10 | 53.62876 | 10.00051 | 44 ft | 2 kts | 220° |
| 2026-05-07 09:11 | 53.62867 | 10.00029 | 46 ft | 2 kts | 236° |
| 2026-05-07 09:11 | 53.62858 | 10.00003 | 46 ft | 3 kts | 240° |
| 2026-05-07 09:11 | 53.62850 | 9.99975 | 47 ft | 3 kts | 244° |
| 2026-05-07 09:11 | 53.62838 | 9.99935 | 47 ft | 9 kts | 244° |
| 2026-05-07 09:12 | 53.62814 | 9.99821 | 48 ft | 10 kts | 276° |
| 2026-05-07 09:12 | 53.62863 | 9.99749 | 47 ft | 9 kts | 332° |
| 2026-05-07 09:12 | 53.62868 | 9.99744 | 47 ft | 0 kts | 333° |
| 2026-05-07 09:13 | 53.62929 | 9.99692 | 47 ft | 44 kts | 333° |
| 2026-05-07 09:13 | 53.63510 | 9.99192 | 46 ft | 137 kts | 333° |
| 2026-05-07 09:14 | 53.64528 | 9.98308 | 457 ft | 172 kts | 332° |
| 2026-05-07 09:14 | 53.65597 | 9.97365 | 1519 ft | 176 kts | 332° |
| 2026-05-07 09:14 | 53.66762 | 9.96340 | 2219 ft | 201 kts | 332° |
| 2026-05-07 09:14 | 53.68081 | 9.95218 | 2993 ft | 219 kts | 333° |
| 2026-05-07 09:15 | 53.69446 | 9.94066 | 4246 ft | 220 kts | 333° |
| 2026-05-07 09:15 | 53.70772 | 9.92749 | 5418 ft | 225 kts | 316° |
| 2026-05-07 09:15 | 53.71519 | 9.90417 | 6428 ft | 240 kts | 279° |
| 2026-05-07 09:15 | 53.71399 | 9.87472 | 7145 ft | 266 kts | 257° |
| 2026-05-07 09:16 | 53.70850 | 9.84411 | 8182 ft | 277 kts | 250° |
| 2026-05-07 09:16 | 53.70158 | 9.81325 | 9259 ft | 286 kts | 248° |
| 2026-05-07 09:16 | 53.69251 | 9.78319 | 9744 ft | 289 kts | 238° |
| 2026-05-07 09:16 | 53.68199 | 9.75454 | 10112 ft | 295 kts | 238° |
| 2026-05-07 09:17 | 53.67054 | 9.72395 | 10730 ft | 321 kts | 237° |
| 2026-05-07 09:17 | 53.65830 | 9.69146 | 11634 ft | 333 kts | 237° |
| 2026-05-07 09:17 | 53.64575 | 9.65821 | 12659 ft | 339 kts | 237° |
| 2026-05-07 09:17 | 53.63300 | 9.62444 | 13674 ft | 344 kts | 237° |
| 2026-05-07 09:18 | 53.62002 | 9.59001 | 14657 ft | 350 kts | 237° |
| 2026-05-07 09:18 | 53.60691 | 9.55524 | 15600 ft | 355 kts | 237° |